Time;durP1;ratioP1;P1;durP2;ratioP2;P2;SDS_P1;SDS_P2;PMS_P1;PMS_P2;Temp;Humidity;BMP_temperature;BMP_pressure;BME280_temperature;BME280_humidity;BME280_pressure;Samples;Min_cycle;Max_cycle;Signal;HPM_P1;HPM_P2
2022/10/27 00:00:15;;;;;;;2.08;1.33;;;9.10;99.90;;;;;;4970950;28;20369;-76
2022/10/27 00:02:41;;;;;;;5.75;2.53;;;8.90;99.90;;;;;;4970499;28;20033;-77
2022/10/27 00:05:07;;;;;;;4.10;2.40;;;9.00;99.90;;;;;;4970796;28;20061;-76
2022/10/27 00:07:36;;;;;;;7.07;3.25;;;9.20;99.90;;;;;;4985858;28;20070;-77
2022/10/27 00:10:02;;;;;;;16.20;2.50;;;9.30;99.90;;;;;;4970941;28;20027;-76
2022/10/27 00:12:29;;;;;;;3.45;2.42;;;9.30;99.90;;;;;;4981682;28;20054;-76
2022/10/27 00:14:55;;;;;;;14.23;4.05;;;9.30;99.90;;;;;;4982650;28;20073;-77
2022/10/27 00:17:21;;;;;;;4.43;1.92;;;9.40;99.90;;;;;;4980638;28;20113;-76
2022/10/27 00:19:46;;;;;;;3.13;1.67;;;9.40;99.90;;;;;;4980733;28;20030;-77
2022/10/27 00:22:12;;;;;;;2.58;1.52;;;9.30;99.90;;;;;;4990204;28;20057;-77
2022/10/27 00:24:38;;;;;;;6.00;2.38;;;9.30;99.90;;;;;;4988740;28;20374;-76
2022/10/27 00:27:04;;;;;;;1.50;1.42;;;9.20;99.90;;;;;;4981166;28;20031;-76
2022/10/27 00:29:30;;;;;;;2.17;1.50;;;9.20;99.90;;;;;;4969971;28;20086;-76
2022/10/27 00:31:56;;;;;;;2.53;1.70;;;9.00;99.90;;;;;;4983473;28;20101;-76
2022/10/27 00:34:21;;;;;;;2.28;1.67;;;8.90;99.90;;;;;;4989766;28;20412;-76
2022/10/27 00:36:47;;;;;;;3.35;1.75;;;8.80;99.90;;;;;;4989856;28;20026;-77
2022/10/27 00:39:13;;;;;;;2.00;1.58;;;8.60;99.90;;;;;;4981554;28;20030;-77
2022/10/27 00:41:41;;;;;;;2.97;2.78;;;8.50;99.90;;;;;;4970256;28;20033;-77
2022/10/27 00:44:28;;;;;;;6.60;1.77;;;8.50;99.90;;;;;;4968432;28;20050;-76
2022/10/27 00:46:55;;;;;;;1.83;1.70;;;8.50;99.90;;;;;;4969898;28;20027;-76
2022/10/27 00:49:37;;;;;;;1.92;1.40;;;8.40;99.90;;;;;;4977878;28;20018;-76
2022/10/27 00:52:08;;;;;;;2.45;2.25;;;8.40;99.90;;;;;;4988362;28;20046;-77
2022/10/27 00:54:39;;;;;;;9.80;3.75;;;8.40;99.90;;;;;;4987859;28;20042;-77
2022/10/27 00:57:06;;;;;;;5.57;2.28;;;8.50;99.90;;;;;;4988426;28;20499;-77
2022/10/27 00:59:33;;;;;;;3.53;2.47;;;8.60;99.90;;;;;;4990814;28;20073;-77
2022/10/27 01:01:59;;;;;;;3.30;1.98;;;8.70;99.90;;;;;;4988227;28;20034;-76
2022/10/27 01:04:53;;;;;;;2.13;1.90;;;8.70;99.90;;;;;;4988006;28;20530;-77
2022/10/27 01:07:21;;;;;;;4.65;2.63;;;8.70;99.90;;;;;;4989052;28;20456;-77
2022/10/27 01:09:47;;;;;;;2.33;1.73;;;8.90;99.90;;;;;;4978140;28;20027;-75
2022/10/27 01:12:13;;;;;;;1.73;1.50;;;8.80;99.90;;;;;;4970067;28;20073;-76
2022/10/27 01:14:39;;;;;;;2.22;1.42;;;8.80;99.90;;;;;;4970333;28;20070;-76
2022/10/27 01:17:15;;;;;;;20.17;2.15;;;8.80;99.90;;;;;;4969746;28;20046;-77
2022/10/27 01:19:44;;;;;;;5.22;2.20;;;;;;;;;;4969756;28;20045;-76
2022/10/27 01:22:35;;;;;;;7.97;3.35;;;8.70;99.90;;;;;;4969770;28;20081;-77
2022/10/27 01:25:25;;;;;;;9.18;2.55;;;8.60;99.90;;;;;;4969858;28;20447;-76
2022/10/27 01:28:29;;;;;;;6.20;2.67;;;8.60;99.90;;;;;;4971817;28;20106;-76
2022/10/27 01:31:11;;;;;;;8.93;3.95;;;8.80;99.90;;;;;;4944492;28;20114;-77
2022/10/27 01:33:46;;;;;;;5.72;2.75;;;8.90;99.90;;;;;;4971806;28;20023;-78
2022/10/27 01:36:32;;;;;;;5.22;3.08;;;9.10;99.90;;;;;;4969499;28;20023;-76
2022/10/27 01:39:32;;;;;;;11.88;3.08;;;9.20;99.90;;;;;;4984012;28;20019;-77
2022/10/27 01:42:06;;;;;;;12.23;3.90;;;9.00;99.90;;;;;;4946174;28;20257;-76
2022/10/27 01:44:39;;;;;;;5.68;3.42;;;9.00;99.90;;;;;;4968852;28;20023;-77
2022/10/27 01:47:07;;;;;;;4.22;2.45;;;9.10;99.90;;;;;;4968888;28;20027;-77
2022/10/27 01:49:38;;;;;;;5.72;2.78;;;9.10;99.90;;;;;;4980067;28;20061;-78
2022/10/27 01:52:35;;;;;;;3.13;2.60;;;9.10;99.90;;;;;;4986819;28;20057;-77
2022/10/27 01:55:01;;;;;;;2.05;1.88;;;9.10;99.90;;;;;;4986955;28;20038;-76
2022/10/27 01:57:36;;;;;;;3.85;2.13;;;9.00;99.90;;;;;;4988013;28;20593;-77
2022/10/27 02:00:04;;;;;;;4.63;2.58;;;8.90;99.90;;;;;;4988457;28;20101;-76
2022/10/27 02:03:00;;;;;;;5.43;3.40;;;8.90;99.90;;;;;;4986997;28;20046;-76
2022/10/27 02:05:41;;;;;;;4.20;2.78;;;9.00;99.90;;;;;;4987643;28;20092;-77
2022/10/27 02:08:11;;;;;;;2.90;2.08;;;9.10;99.90;;;;;;4988283;28;20049;-76
2022/10/27 02:10:56;;;;;;;5.60;2.53;;;9.00;99.90;;;;;;4988647;28;20092;-77
2022/10/27 02:13:22;;;;;;;7.65;2.97;;;8.90;99.90;;;;;;4987849;28;20041;-76
2022/10/27 02:16:28;;;;;;;3.90;2.15;;;8.90;99.90;;;;;;4988981;28;20026;-77
2022/10/27 02:19:00;;;;;;;3.13;2.30;;;8.80;99.90;;;;;;4988070;28;20022;-78
2022/10/27 02:21:27;;;;;;;4.57;2.78;;;8.70;99.90;;;;;;4986467;28;20062;-76
2022/10/27 02:23:53;;;;;;;3.55;2.25;;;8.60;99.90;;;;;;4988063;28;20019;-76
2022/10/27 02:26:30;;;;;;;7.32;3.17;;;8.60;99.90;;;;;;4987719;28;20102;-77
2022/10/27 02:29:03;;;;;;;3.88;2.17;;;8.50;99.90;;;;;;4987883;28;20098;-77
2022/10/27 02:31:38;;;;;;;2.72;2.17;;;8.40;99.90;;;;;;4988041;28;20030;-77
2022/10/27 02:34:05;;;;;;;5.82;3.25;;;8.40;99.90;;;;;;4987663;28;20081;-77
2022/10/27 02:36:32;;;;;;;9.90;1.83;;;;;;;;;;4987716;28;20026;-77
2022/10/27 02:38:57;;;;;;;3.35;2.17;;;8.30;99.90;;;;;;4989047;28;20033;-79
2022/10/27 02:41:23;;;;;;;4.18;2.60;;;8.20;99.90;;;;;;4990367;28;20026;-78
2022/10/27 02:43:48;;;;;;;2.67;2.10;;;8.30;99.90;;;;;;4990914;28;20045;-79
2022/10/27 02:46:14;;;;;;;5.25;2.95;;;8.40;99.90;;;;;;4993241;28;20560;-78
2022/10/27 02:48:40;;;;;;;7.00;3.80;;;8.30;99.90;;;;;;4990403;28;20559;-77
2022/10/27 02:51:05;;;;;;;11.60;3.92;;;8.40;99.90;;;;;;4969147;28;20072;-77
2022/10/27 02:53:31;;;;;;;3.83;2.75;;;8.50;99.90;;;;;;4968197;28;20089;-77
2022/10/27 02:55:57;;;;;;;7.05;2.05;;;8.50;99.90;;;;;;4968110;28;20387;-76
2022/10/27 02:58:22;;;;;;;2.80;2.40;;;8.50;99.90;;;;;;4968085;28;20080;-77
2022/10/27 03:00:54;;;;;;;3.03;2.17;;;8.50;99.90;;;;;;4967911;28;20054;-76
2022/10/27 03:03:20;;;;;;;7.18;2.58;;;8.40;99.90;;;;;;4967985;28;20069;-76
2022/10/27 03:05:46;;;;;;;3.00;2.22;;;8.30;99.90;;;;;;4968101;28;20092;-77
2022/10/27 03:08:11;;;;;;;3.85;2.50;;;8.30;99.90;;;;;;4968092;28;20019;-76
2022/10/27 03:10:37;;;;;;;7.70;4.10;;;8.50;99.90;;;;;;4968278;28;20027;-77
2022/10/27 03:13:03;;;;;;;9.77;3.58;;;8.40;99.90;;;;;;4967905;28;20228;-76
2022/10/27 03:15:29;;;;;;;7.85;3.70;;;8.50;99.90;;;;;;4967806;28;20038;-75
2022/10/27 03:17:54;;;;;;;15.32;3.20;;;8.50;99.90;;;;;;4982393;28;20023;-76
2022/10/27 03:20:20;;;;;;;4.10;2.38;;;8.60;99.90;;;;;;4967744;28;20427;-77
2022/10/27 03:22:46;;;;;;;3.47;2.88;;;8.50;99.90;;;;;;4967695;28;20243;-76
2022/10/27 03:25:13;;;;;;;5.72;2.95;;;8.50;99.90;;;;;;4967801;28;20062;-76
2022/10/27 03:27:40;;;;;;;14.30;3.63;;;8.50;99.90;;;;;;4967751;28;20023;-76
2022/10/27 03:30:07;;;;;;;3.97;3.63;;;8.50;99.90;;;;;;4967990;28;20074;-76
2022/10/27 03:32:33;;;;;;;8.43;3.03;;;8.60;99.90;;;;;;4967360;28;20024;-76
2022/10/27 03:34:58;;;;;;;7.43;3.75;;;8.60;99.90;;;;;;4967916;28;20045;-77
2022/10/27 03:37:24;;;;;;;3.33;2.65;;;;;;;;;;4967262;28;20109;-76
2022/10/27 03:39:50;;;;;;;3.83;2.47;;;8.60;99.90;;;;;;4977332;28;20403;-77
2022/10/27 03:42:16;;;;;;;4.78;3.63;;;8.60;99.90;;;;;;4971257;28;20042;-76
2022/10/27 03:44:41;;;;;;;13.45;3.42;;;8.40;99.90;;;;;;4967359;28;20106;-76
2022/10/27 03:47:07;;;;;;;5.15;2.90;;;8.40;99.90;;;;;;4967414;28;20530;-76
2022/10/27 03:49:32;;;;;;;7.25;2.97;;;8.30;99.90;;;;;;4967382;28;20027;-76
2022/10/27 03:51:58;;;;;;;6.05;2.78;;;8.40;99.90;;;;;;4967366;28;20034;-75
2022/10/27 03:54:24;;;;;;;5.00;2.92;;;8.50;99.90;;;;;;4967189;28;20035;-76
2022/10/27 03:56:49;;;;;;;4.55;2.83;;;7.50;99.90;;;;;;4966331;28;20034;-77
2022/10/27 03:59:15;;;;;;;5.40;2.33;;;8.40;99.90;;;;;;4967439;28;20023;-76
2022/10/27 04:01:42;;;;;;;5.13;2.20;;;8.30;99.90;;;;;;4965993;28;20106;-76
2022/10/27 04:04:10;;;;;;;4.97;2.55;;;8.30;99.90;;;;;;4969608;28;20030;-75
2022/10/27 04:06:36;;;;;;;8.15;3.22;;;8.20;99.90;;;;;;4970660;28;20084;-76
2022/10/27 04:09:01;;;;;;;12.73;3.20;;;8.10;99.90;;;;;;4969679;28;20459;-76
2022/10/27 04:11:27;;;;;;;7.10;2.83;;;8.00;99.90;;;;;;4970817;28;20023;-76
2022/10/27 04:13:52;;;;;;;3.25;2.35;;;7.90;99.90;;;;;;4970529;28;20031;-76
2022/10/27 04:16:18;;;;;;;3.45;2.10;;;7.80;99.90;;;;;;4970439;28;20023;-76
2022/10/27 04:18:44;;;;;;;5.75;3.10;;;7.80;99.90;;;;;;4970759;28;20102;-75
2022/10/27 04:21:09;;;;;;;4.07;2.47;;;7.90;99.90;;;;;;4970356;28;20141;-76
2022/10/27 04:23:35;;;;;;;4.68;2.25;;;8.00;99.90;;;;;;4970638;28;20026;-78
2022/10/27 04:26:01;;;;;;;4.60;2.15;;;8.10;99.90;;;;;;4970641;28;20510;-75
2022/10/27 04:28:26;;;;;;;3.85;2.60;;;8.10;99.90;;;;;;4970092;28;20423;-76
2022/10/27 04:30:52;;;;;;;3.38;2.05;;;8.00;99.90;;;;;;4969023;28;20039;-76
2022/10/27 04:33:18;;;;;;;2.55;2.35;;;8.00;99.90;;;;;;4970251;28;20447;-76
2022/10/27 04:35:43;;;;;;;8.63;3.53;;;7.80;99.90;;;;;;4969215;28;20033;-76
2022/10/27 04:38:09;;;;;;;3.75;2.40;;;7.80;99.90;;;;;;4970324;28;20031;-76
2022/10/27 04:40:35;;;;;;;3.08;2.70;;;7.80;99.90;;;;;;4969084;28;20038;-75
2022/10/27 04:43:00;;;;;;;2.40;1.98;;;7.90;99.90;;;;;;4970909;28;20035;-76
2022/10/27 04:45:26;;;;;;;2.00;1.80;;;7.80;99.90;;;;;;4971028;28;20019;-77
2022/10/27 04:47:52;;;;;;;7.18;2.50;;;7.80;99.90;;;;;;4969956;28;20402;-76
2022/10/27 04:50:18;;;;;;;3.65;2.47;;;7.90;99.90;;;;;;4986611;28;20036;-76
2022/10/27 04:52:58;;;;;;;2.97;2.45;;;8.10;99.90;;;;;;4989960;28;20101;-76
2022/10/27 04:55:25;;;;;;;3.70;2.97;;;8.10;99.90;;;;;;4989331;28;20034;-76
2022/10/27 04:57:51;;;;;;;3.20;1.88;;;8.00;99.90;;;;;;4989157;28;20014;-78
2022/10/27 05:00:17;;;;;;;3.45;2.40;;;7.90;99.90;;;;;;4989112;28;20489;-75
2022/10/27 05:02:43;;;;;;;3.53;2.35;;;7.90;99.90;;;;;;4989072;28;20022;-74
2022/10/27 05:05:09;;;;;;;2.88;2.58;;;7.80;99.90;;;;;;4988850;28;20030;-74
2022/10/27 05:07:37;;;;;;;4.38;2.97;;;7.90;99.90;;;;;;4988993;28;20429;-75
2022/10/27 05:10:03;;;;;;;3.80;2.17;;;7.90;99.90;;;;;;4989290;28;20023;-75
2022/10/27 05:12:29;;;;;;;4.80;2.15;;;8.00;99.90;;;;;;4988947;28;20061;-75
2022/10/27 05:14:54;;;;;;;2.45;1.60;;;8.00;99.90;;;;;;4989191;28;20038;-74
2022/10/27 05:17:20;;;;;;;6.10;2.20;;;7.90;99.90;;;;;;4988860;28;20056;-76
2022/10/27 05:19:46;;;;;;;6.57;2.42;;;7.80;99.90;;;;;;4989041;28;20026;-75
2022/10/27 05:22:12;;;;;;;2.55;2.22;;;7.70;99.90;;;;;;4988544;28;20050;-75
2022/10/27 05:24:37;;;;;;;3.70;2.17;;;7.70;99.90;;;;;;4988977;28;20045;-76
2022/10/27 05:27:03;;;;;;;4.82;2.08;;;7.80;99.90;;;;;;4989377;28;20027;-76
2022/10/27 05:29:30;;;;;;;4.15;1.88;;;7.70;99.90;;;;;;4989058;28;20120;-75
2022/10/27 05:31:55;;;;;;;2.00;1.83;;;7.60;99.90;;;;;;4988697;28;20033;-75
2022/10/27 05:34:21;;;;;;;4.68;2.35;;;7.60;99.90;;;;;;4987252;28;20411;-75
2022/10/27 05:36:47;;;;;;;2.42;1.95;;;7.50;99.90;;;;;;4989370;28;20030;-74
2022/10/27 05:39:13;;;;;;;3.50;2.13;;;7.50;99.90;;;;;;4988551;28;20030;-76
2022/10/27 05:41:38;;;;;;;3.47;2.40;;;7.60;99.90;;;;;;4989043;28;20031;-76
2022/10/27 05:44:04;;;;;;;3.35;1.92;;;7.60;99.90;;;;;;4988855;28;20096;-75
2022/10/27 05:46:30;;;;;;;1.52;1.38;;;7.60;99.90;;;;;;4986788;28;20031;-75
2022/10/27 05:48:56;;;;;;;1.42;1.15;;;7.50;99.90;;;;;;4981486;28;20034;-75
2022/10/27 05:51:21;;;;;;;2.58;1.60;;;7.50;99.90;;;;;;4967931;28;20472;-76
2022/10/27 05:53:50;;;;;;;1.70;1.58;;;7.40;99.90;;;;;;4969120;28;20074;-76
2022/10/27 05:56:16;;;;;;;3.38;1.30;;;7.30;99.90;;;;;;4969607;28;20038;-76
2022/10/27 05:58:42;;;;;;;1.67;1.52;;;7.20;99.90;;;;;;4969954;28;20030;-76
2022/10/27 06:01:08;;;;;;;1.73;1.30;;;7.20;99.90;;;;;;4981788;28;20033;-77
2022/10/27 06:03:33;;;;;;;1.52;1.42;;;7.10;99.90;;;;;;4978671;28;20320;-76
2022/10/27 06:06:02;;;;;;;1.48;1.33;;;7.10;99.90;;;;;;4972230;28;20031;-76
2022/10/27 06:08:28;;;;;;;1.50;1.40;;;7.10;99.90;;;;;;4971096;28;20023;-75
2022/10/27 06:10:55;;;;;;;1.30;1.20;;;7.00;99.90;;;;;;4970729;28;20054;-76
2022/10/27 06:13:21;;;;;;;6.22;2.00;;;7.00;99.90;;;;;;4968610;28;20318;-76
2022/10/27 06:15:47;;;;;;;2.35;1.85;;;7.10;99.90;;;;;;4968381;28;20592;-76
2022/10/27 06:18:13;;;;;;;2.75;2.15;;;7.10;99.90;;;;;;4967164;28;20031;-77
2022/10/27 06:20:40;;;;;;;6.80;2.05;;;7.20;99.90;;;;;;4968962;28;20496;-76
2022/10/27 06:23:06;;;;;;;4.63;2.03;;;7.20;99.90;;;;;;4967379;28;20023;-77
2022/10/27 06:25:32;;;;;;;3.30;2.03;;;;;;;;;;4968339;28;20023;-77
2022/10/27 06:27:58;;;;;;;3.78;1.92;;;;;;;;;;4968596;28;20447;-76
2022/10/27 06:30:24;;;;;;;1.98;1.73;;;4.20;99.90;;;;;;4968510;28;20047;-77
2022/10/27 06:32:49;;;;;;;7.10;1.67;;;5.80;99.90;;;;;;4968372;28;20027;-77
2022/10/27 06:35:15;;;;;;;1.80;1.65;;;7.30;99.90;;;;;;4968761;28;20125;-77
2022/10/27 06:37:43;;;;;;;1.60;1.50;;;7.30;99.90;;;;;;4968167;28;20119;-77
2022/10/27 06:40:11;;;;;;;3.38;1.98;;;7.30;99.90;;;;;;4968515;28;20037;-77
2022/10/27 06:42:37;;;;;;;10.90;2.67;;;7.40;99.90;;;;;;4967968;28;20057;-76
2022/10/27 06:45:04;;;;;;;3.30;2.22;;;7.30;99.90;;;;;;4968511;28;20038;-77
2022/10/27 06:47:30;;;;;;;3.08;1.85;;;;;;;;;;4966402;28;20031;-76
2022/10/27 06:49:56;;;;;;;1.30;1.20;;;7.40;99.90;;;;;;4968228;28;20038;-77
2022/10/27 06:52:21;;;;;;;7.45;2.30;;;7.40;99.90;;;;;;4972375;28;20334;-78
2022/10/27 06:54:47;;;;;;;4.22;1.83;;;;;;;;;;4987121;28;20489;-77
2022/10/27 06:57:13;;;;;;;2.42;2.22;;;7.70;99.90;;;;;;4987290;28;20092;-76
2022/10/27 06:59:39;;;;;;;3.38;1.90;;;8.00;99.90;;;;;;4987150;28;20337;-76
2022/10/27 07:02:05;;;;;;;3.88;2.35;;;8.10;99.90;;;;;;4986701;28;20298;-76
2022/10/27 07:04:30;;;;;;;2.88;2.55;;;8.30;99.90;;;;;;4968362;28;20479;-77
2022/10/27 07:06:56;;;;;;;9.27;2.63;;;8.30;99.90;;;;;;4967426;28;20034;-76
2022/10/27 07:09:22;;;;;;;8.20;2.78;;;8.60;99.90;;;;;;4968863;28;20033;-78
2022/10/27 07:11:48;;;;;;;6.22;2.47;;;8.70;99.90;;;;;;4967743;28;20019;-77
2022/10/27 07:14:13;;;;;;;4.65;2.35;;;8.90;99.90;;;;;;4968435;28;20174;-78
2022/10/27 07:16:39;;;;;;;2.83;2.53;;;;;;;;;;4969658;28;20023;-76
2022/10/27 07:19:05;;;;;;;4.90;3.35;;;9.10;99.90;;;;;;4969333;28;20510;-77
2022/10/27 07:21:31;;;;;;;2.90;2.35;;;9.20;99.90;;;;;;4967964;28;20076;-77
2022/10/27 07:23:56;;;;;;;5.35;2.58;;;9.40;99.90;;;;;;4971893;28;20503;-77
2022/10/27 07:26:23;;;;;;;6.43;2.67;;;11.70;99.90;;;;;;4973626;28;20038;-77
2022/10/27 07:28:48;;;;;;;4.70;2.83;;;9.60;99.90;;;;;;4970006;28;20543;-77
2022/10/27 07:31:15;;;;;;;3.63;2.00;;;;;;;;;;4971370;28;20039;-76
2022/10/27 07:33:40;;;;;;;2.97;2.45;;;9.70;99.90;;;;;;4980603;28;20026;-77
2022/10/27 07:36:06;;;;;;;2.92;2.45;;;9.70;99.90;;;;;;4975607;28;20077;-78
2022/10/27 07:38:32;;;;;;;2.58;2.10;;;9.80;99.90;;;;;;4971275;28;20026;-77
2022/10/27 07:40:57;;;;;;;4.05;2.30;;;9.80;99.90;;;;;;4974823;28;20038;-77
2022/10/27 07:43:26;;;;;;;6.53;2.38;;;10.00;99.90;;;;;;4972448;28;20038;-77
2022/10/27 07:45:51;;;;;;;8.40;2.65;;;10.20;99.90;;;;;;4980002;28;20428;-77
2022/10/27 07:48:17;;;;;;;3.60;2.75;;;10.30;99.90;;;;;;4982573;28;20033;-76
2022/10/27 07:50:44;;;;;;;3.20;2.15;;;10.50;99.90;;;;;;4982904;28;20430;-77
2022/10/27 07:53:10;;;;;;;5.13;2.88;;;10.60;99.90;;;;;;4983488;28;20022;-77
2022/10/27 07:55:36;;;;;;;3.92;2.60;;;10.70;99.90;;;;;;4982036;28;20069;-77
2022/10/27 07:58:09;;;;;;;4.65;2.78;;;10.80;99.90;;;;;;4982317;28;20026;-77
2022/10/27 08:00:37;;;;;;;6.70;3.20;;;11.10;99.90;;;;;;4976033;28;20096;-77
2022/10/27 08:03:05;;;;;;;4.47;2.55;;;11.20;99.90;;;;;;4972314;28;20396;-75
2022/10/27 08:05:33;;;;;;;2.95;2.65;;;11.30;99.90;;;;;;4977422;28;20112;-77
2022/10/27 08:08:02;;;;;;;12.48;2.78;;;11.40;99.90;;;;;;4979626;28;20254;-77
2022/10/27 08:10:28;;;;;;;4.20;3.15;;;11.40;99.90;;;;;;4979250;28;20034;-77
2022/10/27 08:12:54;;;;;;;5.80;2.63;;;11.60;99.90;;;;;;4981113;28;20034;-78
2022/10/27 08:15:20;;;;;;;3.10;2.75;;;11.70;99.90;;;;;;4993558;28;20034;-77
2022/10/27 08:17:51;;;;;;;3.45;2.42;;;11.80;99.90;;;;;;4998848;28;20015;-77
2022/10/27 08:20:16;;;;;;;5.47;3.05;;;11.90;99.90;;;;;;4995037;28;20490;-77
2022/10/27 08:22:42;;;;;;;6.65;3.05;;;12.00;99.90;;;;;;4991854;28;20046;-77
2022/10/27 08:25:08;;;;;;;7.45;4.53;;;12.10;99.90;;;;;;4977927;28;20423;-76
2022/10/27 08:27:33;;;;;;;10.20;3.97;;;12.30;99.90;;;;;;4979142;28;20022;-77
2022/10/27 08:29:59;;;;;;;5.90;2.70;;;;;;;;;;4979989;28;20030;-76
2022/10/27 08:32:25;;;;;;;4.35;3.40;;;12.30;99.90;;;;;;4974867;28;20027;-76
2022/10/27 08:34:51;;;;;;;4.70;2.85;;;12.40;99.90;;;;;;4973950;28;20035;-76
2022/10/27 08:37:17;;;;;;;5.22;3.42;;;12.50;99.90;;;;;;4975171;28;20027;-76
2022/10/27 08:39:42;;;;;;;8.30;3.03;;;12.60;99.90;;;;;;4973849;28;20035;-76
2022/10/27 08:42:14;;;;;;;9.98;3.17;;;12.60;99.90;;;;;;4977488;28;20411;-76
2022/10/27 08:44:50;;;;;;;9.57;3.08;;;12.70;99.90;;;;;;4974025;28;20062;-76
2022/10/27 08:47:21;;;;;;;4.22;3.00;;;12.80;99.90;;;;;;4982957;28;20204;-76
2022/10/27 08:50:15;;;;;;;4.13;2.92;;;12.90;99.90;;;;;;4979057;28;20046;-76
2022/10/27 08:52:40;;;;;;;6.70;3.72;;;13.00;99.90;;;;;;4973019;28;20464;-75
2022/10/27 08:55:12;;;;;;;6.13;4.18;;;13.30;99.90;;;;;;4973267;28;20093;-75
2022/10/27 08:57:59;;;;;;;8.48;3.42;;;13.30;99.90;;;;;;4973339;28;20105;-75
2022/10/27 09:00:29;;;;;;;9.35;3.22;;;13.40;99.90;;;;;;4972687;28;20035;-76
2022/10/27 09:02:55;;;;;;;;;;;13.40;99.90;;;;;;4988954;28;20460;-77
2022/10/27 09:05:42;;;;;;;9.60;3.72;;;13.50;99.90;;;;;;4972826;28;19985;-76
2022/10/27 09:08:26;;;;;;;9.35;3.88;;;13.70;99.90;;;;;;4972856;28;20427;-75
2022/10/27 09:11:22;;;;;;;9.65;3.67;;;12.60;99.90;;;;;;4976711;28;20037;-75
2022/10/27 09:14:11;;;;;;;6.03;3.53;;;13.80;99.90;;;;;;4990286;28;20039;-75
2022/10/27 09:16:47;;;;;;;5.97;3.27;;;13.90;99.90;;;;;;4972542;28;20019;-76
2022/10/27 09:19:20;;;;;;;5.55;3.72;;;13.90;99.90;;;;;;4971384;28;20453;-75
2022/10/27 09:21:45;;;;;;;4.53;2.97;;;13.90;99.90;;;;;;4973903;28;20047;-75
2022/10/27 09:24:16;;;;;;;8.13;3.22;;;13.90;99.90;;;;;;4979689;28;20093;-76
2022/10/27 09:26:44;;;;;;;15.00;3.83;;;13.90;99.90;;;;;;4972786;28;20069;-76
2022/10/27 09:29:21;;;;;;;6.45;2.95;;;14.00;99.90;;;;;;4975210;28;20045;-76
2022/10/27 09:32:01;;;;;;;4.43;3.03;;;14.10;99.90;;;;;;4977303;28;20023;-76
2022/10/27 09:34:47;;;;;;;7.95;3.05;;;14.10;99.90;;;;;;4974185;28;20042;-76
2022/10/27 09:37:17;;;;;;;5.95;2.97;;;14.20;99.90;;;;;;4972156;28;20058;-75
2022/10/27 09:39:47;;;;;;;8.10;2.72;;;14.30;99.90;;;;;;4972731;28;20045;-76
2022/10/27 09:42:13;;;;;;;4.50;3.13;;;14.40;99.90;;;;;;4972750;28;20029;-75
2022/10/27 09:44:38;;;;;;;3.50;3.10;;;14.40;99.90;;;;;;4972547;28;20034;-75
2022/10/27 09:47:04;;;;;;;3.53;3.03;;;14.50;99.90;;;;;;4974353;28;20327;-75
2022/10/27 09:49:39;;;;;;;5.30;2.47;;;14.60;99.90;;;;;;4987505;28;20027;-75
2022/10/27 09:52:11;;;;;;;7.32;2.63;;;14.70;99.90;;;;;;4972010;28;20026;-76
2022/10/27 09:54:38;;;;;;;6.82;2.50;;;14.70;99.90;;;;;;4973643;28;20054;-75
2022/10/27 09:57:09;;;;;;;4.03;2.65;;;14.80;99.90;;;;;;4975943;28;20314;-76
2022/10/27 09:59:36;;;;;;;9.27;1.98;;;14.90;99.90;;;;;;4975552;28;20327;-75
2022/10/27 10:02:23;;;;;;;3.42;2.28;;;14.90;99.90;;;;;;4971126;28;20114;-77
2022/10/27 10:04:49;;;;;;;2.35;2.05;;;15.00;99.90;;;;;;4980321;28;20047;-77
2022/10/27 10:07:30;;;;;;;6.72;2.90;;;14.10;99.90;;;;;;4972807;28;20059;-76
2022/10/27 10:10:15;;;;;;;6.90;3.75;;;15.20;99.90;;;;;;4973759;28;20488;-78
2022/10/27 10:12:40;;;;;;;6.43;4.35;;;15.20;99.90;;;;;;4995060;28;20061;-79
2022/10/27 10:15:09;;;;;;;7.50;3.25;;;15.30;99.90;;;;;;4981274;28;20027;-77
2022/10/27 10:17:36;;;;;;;2.37;1.80;;;15.50;99.90;;;;;;4996367;28;20034;-76
2022/10/27 10:20:07;;;;;;;8.10;2.35;;;15.60;99.90;;;;;;4999406;28;20375;-77
2022/10/27 10:22:35;;;;;;;3.50;1.95;;;15.70;99.90;;;;;;4997635;28;20054;-77
2022/10/27 10:25:22;;;;;;;2.03;1.60;;;15.90;99.90;;;;;;4997122;28;20049;-77
2022/10/27 10:28:05;;;;;;;6.57;2.10;;;16.00;99.90;;;;;;4992866;28;20014;-76
2022/10/27 10:30:39;;;;;;;6.80;2.08;;;16.00;99.90;;;;;;4978331;28;20023;-77
2022/10/27 10:33:12;;;;;;;9.30;2.08;;;16.10;99.90;;;;;;4971047;28;20060;-78
2022/10/27 10:35:42;;;;;;;8.50;3.10;;;16.10;99.90;;;;;;4977954;28;20061;-78
2022/10/27 10:38:30;;;;;;;2.63;2.05;;;16.20;99.90;;;;;;4977924;28;20015;-78
2022/10/27 10:41:02;;;;;;;5.47;1.38;;;16.30;99.90;;;;;;4973859;28;20327;-77
2022/10/27 10:43:28;;;;;;;3.53;2.22;;;16.40;99.90;;;;;;4973272;28;20050;-76
2022/10/27 10:45:54;;;;;;;4.75;2.50;;;16.50;99.90;;;;;;4976284;28;20097;-78
2022/10/27 10:48:19;;;;;;;5.78;2.20;;;16.60;99.90;;;;;;4977437;28;20362;-76
2022/10/27 10:50:47;;;;;;;3.88;1.75;;;16.80;99.90;;;;;;4976775;28;20026;-78
2022/10/27 10:53:26;;;;;;;2.97;1.88;;;16.80;99.90;;;;;;4975105;28;20550;-78
2022/10/27 10:55:54;;;;;;;7.78;1.85;;;17.00;99.90;;;;;;4975123;28;20223;-77
2022/10/27 10:58:22;;;;;;;1.83;1.25;;;17.10;99.90;;;;;;4973728;28;20034;-76
2022/10/27 11:01:00;;;;;;;4.30;1.40;;;17.40;99.90;;;;;;4980754;28;20033;-77
2022/10/27 11:03:33;;;;;;;1.70;1.50;;;17.50;99.90;;;;;;4979512;28;20034;-77
2022/10/27 11:06:03;;;;;;;1.42;1.33;;;17.60;99.90;;;;;;4985485;28;20030;-76
2022/10/27 11:08:37;;;;;;;4.05;1.92;;;17.60;99.90;;;;;;4988893;28;20023;-77
2022/10/27 11:11:10;;;;;;;4.22;1.70;;;17.70;99.90;;;;;;4988203;28;20011;-77
2022/10/27 11:13:50;;;;;;;3.85;2.00;;;17.80;99.90;;;;;;4987071;28;20015;-79
2022/10/27 11:16:16;;;;;;;3.72;1.70;;;18.00;99.90;;;;;;4980546;28;20030;-77
2022/10/27 11:18:47;;;;;;;3.17;2.40;;;18.10;99.90;;;;;;4977731;28;20030;-76
2022/10/27 11:21:19;;;;;;;1.60;1.30;;;18.20;99.90;;;;;;4977691;28;20070;-76
2022/10/27 11:23:55;;;;;;;3.42;1.45;;;18.30;99.90;;;;;;4977644;28;20037;-76
2022/10/27 11:26:33;;;;;;;3.22;1.58;;;18.40;99.90;;;;;;4976928;28;20054;-76
2022/10/27 11:29:25;;;;;;;1.90;1.70;;;18.60;99.90;;;;;;4977891;28;20389;-77
2022/10/27 11:32:06;;;;;;;4.63;2.35;;;18.70;99.90;;;;;;4976915;28;20034;-77
2022/10/27 11:35:03;;;;;;;0.90;0.73;;;18.80;99.90;;;;;;4977613;28;20035;-77
2022/10/27 11:37:57;;;;;;;2.78;1.98;;;18.80;99.90;;;;;;4977723;28;20027;-76
2022/10/27 11:40:32;;;;;;;2.13;1.42;;;18.90;99.90;;;;;;4965147;28;20093;-76
2022/10/27 11:43:30;;;;;;;1.52;1.42;;;19.00;99.90;;;;;;4977654;28;20031;-77
2022/10/27 11:46:16;;;;;;;1.80;1.50;;;19.10;99.90;;;;;;4910278;28;20343;-77
2022/10/27 11:48:50;;;;;;;2.20;0.95;;;19.20;99.90;;;;;;4977750;28;20098;-76
2022/10/27 11:51:27;;;;;;;4.20;1.73;;;19.20;99.90;;;;;;4977125;28;20338;-77
2022/10/27 11:53:53;;;;;;;15.75;1.83;;;19.30;99.90;;;;;;4977917;28;20053;-77
2022/10/27 11:56:43;;;;;;;1.17;1.05;;;19.50;99.90;;;;;;4977772;28;20094;-77
2022/10/27 11:59:18;;;;;;;1.52;1.40;;;19.60;99.90;;;;;;4976768;28;20034;-76
2022/10/27 12:02:22;;;;;;;1.45;1.10;;;19.70;99.90;;;;;;4976695;28;20134;-76
2022/10/27 12:05:11;;;;;;;4.25;1.25;;;19.80;99.90;;;;;;4978422;28;20046;-76
2022/10/27 12:07:46;;;;;;;4.43;1.10;;;19.90;99.90;;;;;;4954979;28;20038;-76
2022/10/27 12:10:36;;;;;;;3.70;1.92;;;20.00;99.90;;;;;;4964016;28;20050;-78
2022/10/27 12:13:11;;;;;;;3.90;1.70;;;20.20;99.90;;;;;;4965795;28;20027;-77
2022/10/27 12:16:09;;;;;;;5.30;1.77;;;20.30;99.90;;;;;;4965022;28;20045;-76
2022/10/27 12:18:53;;;;;;;6.03;1.23;;;20.40;99.90;;;;;;4965162;28;20023;-76
2022/10/27 12:21:27;;;;;;;2.45;1.27;;;20.60;99.90;;;;;;4965617;28;20055;-77
2022/10/27 12:24:17;;;;;;;4.80;1.33;;;20.80;99.90;;;;;;4967811;28;20267;-77
2022/10/27 12:26:53;;;;;;;3.42;1.60;;;21.30;99.90;;;;;;4970239;28;20027;-77
2022/10/27 12:29:20;;;;;;;1.67;1.20;;;22.00;99.90;;;;;;4970536;28;20027;-76
2022/10/27 12:31:56;;;;;;;2.17;1.52;;;22.90;99.90;;;;;;4970052;28;20093;-78
2022/10/27 12:34:30;;;;;;;1.40;1.10;;;24.00;99.90;;;;;;4970019;28;20375;-79
2022/10/27 12:37:03;;;;;;;1.83;1.00;;;25.50;99.90;;;;;;4968278;28;20027;-79
2022/10/27 12:39:46;;;;;;;5.32;1.80;;;27.10;92.00;;;;;;4969732;28;20027;-79
2022/10/27 12:42:55;;;;;;;2.80;1.27;;;27.70;78.80;;;;;;4969664;28;20027;-79
2022/10/27 12:45:46;;;;;;;1.40;1.30;;;28.10;73.60;;;;;;4969202;28;20035;-77
2022/10/27 12:48:35;;;;;;;1.63;1.42;;;28.20;71.30;;;;;;4969930;28;20019;-77
2022/10/27 12:51:15;;;;;;;1.63;0.80;;;28.70;68.50;;;;;;4959406;28;20198;-78
2022/10/27 12:53:49;;;;;;;1.73;1.08;;;29.30;67.20;;;;;;4969807;28;20030;-78
2022/10/27 12:56:43;;;;;;;2.50;1.70;;;29.80;66.10;;;;;;4969966;28;20046;-78
2022/10/27 12:59:18;;;;;;;10.00;1.45;;;30.30;62.20;;;;;;4970066;28;20093;-80
2022/10/27 13:01:55;;;;;;;2.40;1.23;;;30.40;61.60;;;;;;4969342;28;20408;-79
2022/10/27 13:04:32;;;;;;;1.10;1.00;;;30.20;62.20;;;;;;4971119;28;20022;-76
2022/10/27 13:07:01;;;;;;;4.45;1.02;;;30.50;60.30;;;;;;4988891;28;20034;-77
2022/10/27 13:10:00;;;;;;;2.10;1.30;;;30.70;60.30;;;;;;4988802;28;20023;-78
2022/10/27 13:12:42;;;;;;;11.73;1.40;;;30.30;59.60;;;;;;4989848;28;20089;-78
2022/10/27 13:15:26;;;;;;;7.43;1.15;;;30.30;58.90;;;;;;4987532;28;20080;-79